createdAt,value
2018-02-01T00:01:46.279Z,9.90
2018-02-01T00:04:13.772Z,9.90
2018-02-01T00:06:41.242Z,10.00
2018-02-01T00:09:08.814Z,10.00
2018-02-01T00:11:36.277Z,10.00
2018-02-01T00:14:04.537Z,9.90
2018-02-01T00:16:32.013Z,9.70
2018-02-01T00:18:59.513Z,9.90
2018-02-01T00:21:27.790Z,9.80
2018-02-01T00:23:55.278Z,9.80
2018-02-01T00:26:22.743Z,9.80
2018-02-01T00:28:50.223Z,9.70
2018-02-01T00:31:17.688Z,9.80
2018-02-01T00:33:45.161Z,9.80
2018-02-01T00:36:12.640Z,9.80
2018-02-01T00:38:40.122Z,9.80
2018-02-01T00:41:07.586Z,9.70
2018-02-01T00:43:36.085Z,9.70
2018-02-01T00:46:04.338Z,9.70
2018-02-01T00:48:31.805Z,9.70
2018-02-01T00:50:59.257Z,9.60
2018-02-01T00:53:27.509Z,9.70
2018-02-01T00:55:54.996Z,9.70
2018-02-01T00:58:22.450Z,9.70
2018-02-01T01:00:49.979Z,9.60
2018-02-01T01:03:17.465Z,9.60
2018-02-01T01:05:44.968Z,9.70
2018-02-01T01:08:13.201Z,9.50
2018-02-01T01:10:41.430Z,9.50
2018-02-01T01:13:08.903Z,9.50
2018-02-01T01:15:36.409Z,9.50
2018-02-01T01:18:03.872Z,9.50
2018-02-01T01:20:31.373Z,9.50
2018-02-01T01:22:58.850Z,9.40
2018-02-01T01:25:26.318Z,9.30
2018-02-01T01:27:53.793Z,9.30
2018-02-01T01:30:21.386Z,9.20
2018-02-01T01:32:48.949Z,9.30
2018-02-01T01:35:16.432Z,9.20
2018-02-01T01:37:43.928Z,9.30
2018-02-01T01:40:12.168Z,9.30
2018-02-01T01:42:40.444Z,9.40
2018-02-01T01:45:07.916Z,9.30
2018-02-01T01:47:35.428Z,9.40
2018-02-01T01:50:02.904Z,9.40
2018-02-01T01:52:31.122Z,9.40
2018-02-01T01:54:58.595Z,9.40
2018-02-01T01:57:26.086Z,9.40
2018-02-01T01:59:53.552Z,9.40
2018-02-01T02:02:21.081Z,9.40
2018-02-01T02:04:48.557Z,9.50
2018-02-01T02:07:16.057Z,9.50
2018-02-01T02:09:43.584Z,9.50
2018-02-01T02:12:11.061Z,9.50
2018-02-01T02:14:39.282Z,9.40
2018-02-01T02:17:06.831Z,9.40
2018-02-01T02:19:34.296Z,9.40
2018-02-01T02:22:02.524Z,9.30
2018-02-01T02:24:30.767Z,9.30
2018-02-01T02:26:58.988Z,9.20
2018-02-01T02:29:26.482Z,9.20
2018-02-01T02:31:54.702Z,9.10
2018-02-01T02:34:22.190Z,9.10
2018-02-01T02:36:49.714Z,9.20
2018-02-01T02:39:18.177Z,9.20
2018-02-01T02:41:45.670Z,9.20
2018-02-01T02:44:13.140Z,9.20
2018-02-01T02:46:40.621Z,9.20
2018-02-01T02:49:08.858Z,9.10
2018-02-01T02:51:37.205Z,9.10
2018-02-01T02:56:42.919Z,9.00
2018-02-01T02:59:10.397Z,9.10
2018-02-01T03:01:37.890Z,9.10
2018-02-01T03:04:05.387Z,9.10
2018-02-01T03:06:33.606Z,9.00
2018-02-01T03:09:01.086Z,8.90
2018-02-01T03:11:28.568Z,8.90
2018-02-01T03:13:56.046Z,9.00
2018-02-01T03:16:23.510Z,9.00
2018-02-01T03:18:51.788Z,9.10
2018-02-01T03:21:19.300Z,9.00
2018-02-01T03:23:46.768Z,9.00
2018-02-01T03:26:15.023Z,8.80
2018-02-01T03:28:42.504Z,8.80
2018-02-01T03:31:09.995Z,8.80
2018-02-01T03:33:38.228Z,8.70
2018-02-01T03:36:06.479Z,8.70
2018-02-01T03:38:33.975Z,8.70
2018-02-01T03:41:01.445Z,8.70
2018-02-01T03:43:29.861Z,8.70
2018-02-01T03:45:57.392Z,8.70
2018-02-01T03:48:25.642Z,8.60
2018-02-01T03:50:53.122Z,8.60
2018-02-01T03:53:21.375Z,8.60
2018-02-01T03:55:49.624Z,8.50
2018-02-01T03:58:17.090Z,8.50
2018-02-01T04:00:44.589Z,8.40
2018-02-01T04:03:12.074Z,8.40
2018-02-01T04:05:39.548Z,8.40
2018-02-01T04:08:07.028Z,8.40
2018-02-01T04:10:34.486Z,8.40
2018-02-01T04:13:02.603Z,8.40
2018-02-01T04:15:30.072Z,8.40
2018-02-01T04:17:58.290Z,8.20
2018-02-01T04:20:25.780Z,8.30
2018-02-01T04:22:53.238Z,8.30
2018-02-01T04:25:20.760Z,8.30
2018-02-01T04:27:48.250Z,8.30
2018-02-01T04:30:15.736Z,8.20
2018-02-01T04:32:43.328Z,8.20
2018-02-01T04:35:10.800Z,8.20
2018-02-01T04:37:38.275Z,8.20
2018-02-01T04:40:05.774Z,8.30
2018-02-01T04:42:33.239Z,8.20
2018-02-01T04:45:00.704Z,8.20
2018-02-01T04:47:28.195Z,8.20
2018-02-01T04:49:55.674Z,8.20
2018-02-01T04:52:23.180Z,8.30
2018-02-01T04:54:50.661Z,8.40
2018-02-01T04:57:18.154Z,8.30
2018-02-01T04:59:45.641Z,8.30
2018-02-01T05:02:13.120Z,8.20
2018-02-01T05:04:40.597Z,8.30
2018-02-01T05:07:08.856Z,8.20
2018-02-01T05:09:37.083Z,8.20
2018-02-01T05:12:04.610Z,8.10
2018-02-01T05:14:32.848Z,8.10
2018-02-01T05:19:41.075Z,8.10
2018-02-01T05:22:08.541Z,8.10
2018-02-01T05:24:36.014Z,8.10
2018-02-01T05:27:03.499Z,8.10
2018-02-01T05:29:30.958Z,8.00
2018-02-01T05:31:58.591Z,8.00
2018-02-01T05:34:26.058Z,8.00
2018-02-01T05:36:53.527Z,8.00
2018-02-01T05:39:21.178Z,8.00
2018-02-01T05:41:48.654Z,7.90
2018-02-01T05:44:16.173Z,7.90
2018-02-01T05:46:43.673Z,7.90
2018-02-01T05:49:11.138Z,7.80
2018-02-01T05:51:38.616Z,7.70
2018-02-01T05:54:06.926Z,7.50
2018-02-01T05:56:34.417Z,7.50
2018-02-01T05:59:01.890Z,7.40
2018-02-01T06:01:29.413Z,7.40
2018-02-01T06:03:56.921Z,7.40
2018-02-01T06:06:24.399Z,7.10
2018-02-01T06:08:51.880Z,7.30
2018-02-01T06:11:19.488Z,7.30
2018-02-01T06:13:46.957Z,7.30
2018-02-01T06:16:14.436Z,7.20
2018-02-01T06:18:41.989Z,7.30
2018-02-01T06:21:09.534Z,7.20
2018-02-01T06:23:37.461Z,7.20
2018-02-01T06:26:05.020Z,7.20
2018-02-01T06:28:33.451Z,7.20
2018-02-01T06:31:01.013Z,7.20
2018-02-01T06:33:29.348Z,7.00
2018-02-01T06:35:56.854Z,7.20
2018-02-01T06:38:24.401Z,7.20
2018-02-01T06:40:51.887Z,7.20
2018-02-01T06:43:19.417Z,7.10
2018-02-01T06:45:46.939Z,7.00
2018-02-01T06:48:15.253Z,7.00
2018-02-01T06:50:42.740Z,7.00
2018-02-01T06:53:10.375Z,7.00
2018-02-01T06:55:38.218Z,6.90
2018-02-01T06:58:05.772Z,6.90
2018-02-01T07:00:39.834Z,7.00
2018-02-01T07:03:08.060Z,7.00
2018-02-01T07:05:36.562Z,6.90
2018-02-01T07:08:04.338Z,7.00
2018-02-01T07:10:31.878Z,6.90
2018-02-01T07:13:00.200Z,7.10
2018-02-01T07:15:27.785Z,7.00
2018-02-01T07:17:55.362Z,7.10
2018-02-01T07:20:23.693Z,7.00
2018-02-01T07:22:52.072Z,7.00
2018-02-01T07:25:20.404Z,7.00
2018-02-01T07:27:48.288Z,7.00
2018-02-01T07:30:15.916Z,7.00
2018-02-01T07:32:45.238Z,6.90
2018-02-01T07:35:13.878Z,7.00
2018-02-01T07:37:41.602Z,6.90
2018-02-01T07:40:09.103Z,6.80
2018-02-01T07:42:37.389Z,6.80
2018-02-01T07:45:04.899Z,6.80
2018-02-01T07:47:33.148Z,6.80
2018-02-01T07:50:00.636Z,6.80
2018-02-01T07:52:28.121Z,6.80
2018-02-01T07:54:55.619Z,6.80
2018-02-01T07:57:23.892Z,6.60
2018-02-01T07:59:51.481Z,6.60
2018-02-01T08:02:18.964Z,6.50
2018-02-01T08:04:46.510Z,6.40
2018-02-01T08:07:13.991Z,6.40
2018-02-01T08:09:42.295Z,6.50
2018-02-01T08:12:21.390Z,6.50
2018-02-01T08:14:49.179Z,6.50
2018-02-01T08:17:17.032Z,6.60
2018-02-01T08:19:45.083Z,6.70
2018-02-01T08:22:13.166Z,6.60
2018-02-01T08:24:41.926Z,6.70
2018-02-01T08:27:10.151Z,6.70
2018-02-01T08:29:39.172Z,6.80
2018-02-01T08:32:07.672Z,6.80
2018-02-01T08:34:36.241Z,6.80
2018-02-01T08:37:03.901Z,6.90
2018-02-01T08:39:31.547Z,6.80
2018-02-01T08:42:01.642Z,6.90
2018-02-01T08:44:29.191Z,6.90
2018-02-01T08:46:56.877Z,6.90
2018-02-01T08:49:25.186Z,6.90
2018-02-01T08:51:53.510Z,6.80
2018-02-01T08:54:21.943Z,6.90
2018-02-01T08:56:49.505Z,6.90
2018-02-01T08:59:17.041Z,6.80
2018-02-01T09:01:44.610Z,6.80
2018-02-01T09:04:12.150Z,6.90
2018-02-01T09:06:39.715Z,6.90
2018-02-01T09:09:08.048Z,6.90
2018-02-01T09:11:36.445Z,6.80
2018-02-01T09:14:04.031Z,6.80
2018-02-01T09:16:57.255Z,6.80
2018-02-01T09:19:24.818Z,6.80
2018-02-01T09:21:52.331Z,6.80
2018-02-01T09:24:19.934Z,6.60
2018-02-01T09:26:47.662Z,6.70
2018-02-01T09:29:26.896Z,6.80
2018-02-01T09:31:56.056Z,6.70
2018-02-01T09:34:23.635Z,6.70
2018-02-01T09:36:51.230Z,6.60
2018-02-01T09:39:18.936Z,6.40
2018-02-01T09:41:46.473Z,6.40
2018-02-01T09:44:14.073Z,6.40
2018-02-01T09:46:41.650Z,6.40
2018-02-01T09:49:09.156Z,6.10
2018-02-01T09:51:36.910Z,6.10
2018-02-01T09:54:04.461Z,5.80
2018-02-01T09:56:32.043Z,5.90
2018-02-01T09:58:59.535Z,5.90
2018-02-01T10:01:27.104Z,5.90
2018-02-01T10:03:54.675Z,5.90
2018-02-01T10:06:22.259Z,5.90
2018-02-01T10:08:49.935Z,5.90
2018-02-01T10:11:17.645Z,5.90
2018-02-01T10:13:45.199Z,5.90
2018-02-01T10:16:12.737Z,5.80
2018-02-01T10:18:40.324Z,5.80
2018-02-01T10:21:08.744Z,5.60
2018-02-01T10:23:36.445Z,5.60
2018-02-01T10:26:04.022Z,5.80
2018-02-01T10:28:31.565Z,5.80
2018-02-01T10:30:59.106Z,5.80
2018-02-01T10:33:26.649Z,5.70
2018-02-01T10:35:54.992Z,5.50
2018-02-01T10:41:05.236Z,5.40
2018-02-01T10:43:32.788Z,5.20
2018-02-01T10:46:00.328Z,5.30
2018-02-01T10:48:27.928Z,5.20
2018-02-01T10:50:55.473Z,5.10
2018-02-01T10:53:23.030Z,5.00
2018-02-01T10:55:50.577Z,4.90
2018-02-01T10:58:18.166Z,4.90
2018-02-01T11:00:45.688Z,4.80
2018-02-01T11:03:13.241Z,4.70
2018-02-01T11:05:41.542Z,4.50
2018-02-01T11:08:09.909Z,4.50
2018-02-01T11:10:37.692Z,4.50
2018-02-01T11:13:05.224Z,4.60
2018-02-01T11:15:33.549Z,4.50
2018-02-01T11:18:01.050Z,4.60
2018-02-01T11:20:28.671Z,4.60
2018-02-01T11:22:57.042Z,4.30
2018-02-01T11:25:25.326Z,4.30
2018-02-01T11:27:52.888Z,4.30
2018-02-01T11:30:21.221Z,4.20
2018-02-01T11:32:48.801Z,4.20
2018-02-01T11:35:16.559Z,4.20
2018-02-01T11:37:44.854Z,4.00
2018-02-01T11:40:13.163Z,4.10
2018-02-01T11:42:40.701Z,4.10
2018-02-01T11:45:08.246Z,4.20
2018-02-01T11:47:35.781Z,4.10
2018-02-01T11:50:03.681Z,4.30
2018-02-01T11:52:31.457Z,4.30
2018-02-01T11:54:58.985Z,4.30
2018-02-01T11:57:26.509Z,4.40
2018-02-01T11:59:54.008Z,4.50
2018-02-01T12:02:21.742Z,4.40
2018-02-01T12:04:50.049Z,4.50
2018-02-01T12:07:17.716Z,4.50
2018-02-01T12:09:46.026Z,4.40
2018-02-01T12:12:14.364Z,4.40
2018-02-01T12:14:41.911Z,4.30
2018-02-01T12:17:10.319Z,4.30
2018-02-01T12:19:38.649Z,4.40
2018-02-01T12:22:06.186Z,4.30
2018-02-01T12:24:33.739Z,4.40
2018-02-01T12:27:01.327Z,4.50
2018-02-01T12:29:28.926Z,4.60
2018-02-01T12:31:56.652Z,4.60
2018-02-01T12:34:25.042Z,4.60
2018-02-01T12:36:53.453Z,4.70
2018-02-01T12:39:21.038Z,4.60
2018-02-01T12:41:48.683Z,4.60
2018-02-01T12:44:18.403Z,4.60
2018-02-01T12:46:46.184Z,4.50
2018-02-01T12:49:14.535Z,4.60
2018-02-01T12:51:45.307Z,4.70
2018-02-01T12:54:12.840Z,4.60
2018-02-01T12:56:40.386Z,4.60
2018-02-01T12:59:08.725Z,4.70
2018-02-01T13:01:36.275Z,4.60
2018-02-01T13:04:04.787Z,4.60
2018-02-01T13:06:33.246Z,4.50
2018-02-01T13:09:01.644Z,4.50
2018-02-01T13:11:29.178Z,4.50
2018-02-01T13:13:57.992Z,4.30
2018-02-01T13:16:27.424Z,4.60
2018-02-01T13:18:55.747Z,4.60
2018-02-01T13:21:23.545Z,4.60
2018-02-01T13:23:51.206Z,4.70
2018-02-01T13:26:18.823Z,4.70
2018-02-01T13:28:46.992Z,4.80
2018-02-01T13:31:14.551Z,4.80
2018-02-01T13:33:42.092Z,4.70
2018-02-01T13:36:10.277Z,4.80
2018-02-01T13:38:37.901Z,4.80
2018-02-01T13:41:06.183Z,4.80
2018-02-01T13:43:34.978Z,4.50
2018-02-01T13:46:02.618Z,4.80
2018-02-01T13:48:30.993Z,4.80
2018-02-01T13:50:58.552Z,4.80
2018-02-01T13:53:26.375Z,4.90
2018-02-01T13:55:54.097Z,4.90
2018-02-01T13:58:21.823Z,4.80
2018-02-01T14:00:50.435Z,4.80
2018-02-01T14:03:18.209Z,4.80
2018-02-01T14:05:45.768Z,4.80
2018-02-01T14:08:15.016Z,4.90
2018-02-01T14:10:42.580Z,4.80
2018-02-01T14:13:10.899Z,4.80
2018-02-01T14:15:38.498Z,4.80
2018-02-01T14:18:06.059Z,4.80
2018-02-01T14:20:33.583Z,4.80
2018-02-01T14:23:01.121Z,4.90
2018-02-01T14:25:29.440Z,4.90
2018-02-01T14:27:57.894Z,4.90
2018-02-01T14:30:27.211Z,4.80
2018-02-01T14:32:54.759Z,4.80
2018-02-01T14:35:22.293Z,4.90
2018-02-01T14:37:49.861Z,4.90
2018-02-01T14:40:17.356Z,5.00
2018-02-01T14:42:44.916Z,5.00
2018-02-01T14:45:13.170Z,5.00
2018-02-01T14:47:41.426Z,5.00
2018-02-01T14:50:09.646Z,4.90
2018-02-01T14:52:37.334Z,4.90
2018-02-01T14:55:05.608Z,5.00
2018-02-01T14:57:33.093Z,4.90
2018-02-01T15:00:00.575Z,5.00
2018-02-01T15:02:28.054Z,4.90
2018-02-01T15:04:55.571Z,5.00
2018-02-01T15:07:23.060Z,5.00
2018-02-01T15:09:50.575Z,5.00
2018-02-01T15:12:18.085Z,4.90
2018-02-01T15:14:45.601Z,4.90
2018-02-01T15:17:13.120Z,5.00
2018-02-01T15:19:41.372Z,4.90
2018-02-01T15:22:08.851Z,4.90
2018-02-01T15:24:36.452Z,4.90
2018-02-01T15:27:03.940Z,4.90
2018-02-01T15:29:31.564Z,4.90
2018-02-01T15:31:59.804Z,4.90
2018-02-01T15:34:27.291Z,4.90
2018-02-01T15:36:55.658Z,4.80
2018-02-01T15:39:23.248Z,4.80
2018-02-01T15:41:50.913Z,4.90
2018-02-01T15:44:19.158Z,4.90
2018-02-01T15:46:46.729Z,4.90
2018-02-01T15:49:14.227Z,4.80
2018-02-01T15:51:41.710Z,4.90
2018-02-01T15:54:09.288Z,4.90
2018-02-01T15:56:36.873Z,4.80
2018-02-01T15:59:04.400Z,4.90
2018-02-01T16:01:31.880Z,4.90
2018-02-01T16:04:00.218Z,5.00
2018-02-01T16:06:27.712Z,4.90
2018-02-01T16:08:56.115Z,4.90
2018-02-01T16:11:24.091Z,4.90
2018-02-01T16:13:51.576Z,5.00
2018-02-01T16:16:19.070Z,4.80
2018-02-01T16:18:46.560Z,4.80
2018-02-01T16:21:14.085Z,4.70
2018-02-01T16:23:41.585Z,4.80
2018-02-01T16:26:09.833Z,4.80
2018-02-01T16:28:37.382Z,4.80
2018-02-01T16:31:04.988Z,4.80
2018-02-01T16:33:32.556Z,4.80
2018-02-01T16:36:00.069Z,4.70
2018-02-01T16:38:27.593Z,4.80
2018-02-01T16:40:55.859Z,4.70
2018-02-01T16:43:24.471Z,4.80
2018-02-01T16:45:52.105Z,4.70
2018-02-01T16:48:20.347Z,4.70
2018-02-01T16:50:47.864Z,4.70
2018-02-01T16:53:15.380Z,4.80
2018-02-01T16:55:42.935Z,4.80
2018-02-01T16:58:10.524Z,4.70
2018-02-01T17:00:38.107Z,4.80
2018-02-01T17:03:05.575Z,4.80
2018-02-01T17:05:33.082Z,5.00
2018-02-01T17:08:01.342Z,4.90
2018-02-01T17:10:28.983Z,4.90
2018-02-01T17:12:57.395Z,4.90
2018-02-01T17:15:24.896Z,4.80
2018-02-01T17:17:53.228Z,4.90
2018-02-01T17:20:20.747Z,4.80
2018-02-01T17:22:48.237Z,4.90
2018-02-01T17:25:16.513Z,4.90
2018-02-01T17:27:44.058Z,4.90
2018-02-01T17:30:11.683Z,4.90
2018-02-01T17:32:39.213Z,4.90
2018-02-01T17:35:06.705Z,4.90
2018-02-01T17:37:34.194Z,4.80
2018-02-01T17:40:01.724Z,4.80
2018-02-01T17:42:29.980Z,4.70
2018-02-01T17:44:57.572Z,4.70
2018-02-01T17:47:25.046Z,4.70
2018-02-01T17:49:52.556Z,4.60
2018-02-01T17:52:20.033Z,4.70
2018-02-01T17:54:47.548Z,4.70
2018-02-01T17:57:15.796Z,4.60
2018-02-01T17:59:43.299Z,4.60
2018-02-01T18:02:10.875Z,4.70
2018-02-01T18:04:38.431Z,4.60
2018-02-01T18:07:05.965Z,4.60
2018-02-01T18:09:33.472Z,4.50
2018-02-01T18:12:01.748Z,4.50
2018-02-01T18:14:29.261Z,4.50
2018-02-01T18:16:57.509Z,4.40
2018-02-01T18:19:24.997Z,4.40
2018-02-01T18:21:52.490Z,4.40
2018-02-01T18:24:19.991Z,4.30
2018-02-01T18:26:47.482Z,4.30
2018-02-01T18:29:14.955Z,4.40
2018-02-01T18:31:43.131Z,4.40
2018-02-01T18:34:10.769Z,4.30
2018-02-01T18:36:42.053Z,4.10
2018-02-01T18:39:09.615Z,4.30
2018-02-01T18:41:37.301Z,4.30
2018-02-01T18:44:05.598Z,4.20
2018-02-01T18:46:33.908Z,4.20
2018-02-01T18:49:02.196Z,4.20
2018-02-01T18:51:29.745Z,4.10
2018-02-01T18:53:57.309Z,4.00
2018-02-01T18:56:24.783Z,4.00
2018-02-01T18:58:53.185Z,4.10
2018-02-01T19:01:20.690Z,4.10
2018-02-01T19:03:48.177Z,4.20
2018-02-01T19:06:15.712Z,4.20
2018-02-01T19:08:43.213Z,4.10
2018-02-01T19:11:11.480Z,4.10
2018-02-01T19:13:38.966Z,3.90
2018-02-01T19:16:06.454Z,4.10
2018-02-01T19:18:34.019Z,4.10
2018-02-01T19:21:02.317Z,4.20
2018-02-01T19:23:29.813Z,4.20
2018-02-01T19:25:57.339Z,4.30
2018-02-01T19:28:25.635Z,4.20
2018-02-01T19:30:53.174Z,4.20
2018-02-01T19:33:20.664Z,4.20
2018-02-01T19:35:48.164Z,4.20
2018-02-01T19:38:15.659Z,4.30
2018-02-01T19:40:43.309Z,4.30
2018-02-01T19:43:11.315Z,4.40
2018-02-01T19:45:38.800Z,4.40
2018-02-01T19:48:06.303Z,4.40
2018-02-01T19:50:34.589Z,4.50
2018-02-01T19:53:02.165Z,4.50
2018-02-01T19:55:30.444Z,4.50
2018-02-01T19:57:57.946Z,4.50
2018-02-01T20:00:25.431Z,4.50
2018-02-01T20:02:52.938Z,4.50
2018-02-01T20:05:20.445Z,4.50
2018-02-01T20:07:49.126Z,4.40
2018-02-01T20:10:16.715Z,4.40
2018-02-01T20:12:45.145Z,4.30
2018-02-01T20:15:12.654Z,4.30
2018-02-01T20:17:40.918Z,4.30
2018-02-01T20:20:08.584Z,4.30
2018-02-01T20:22:36.111Z,4.30
2018-02-01T20:25:03.617Z,4.30
2018-02-01T20:27:31.900Z,4.20
2018-02-01T20:30:00.148Z,4.30
2018-02-01T20:32:27.732Z,4.30
2018-02-01T20:34:55.302Z,4.20
2018-02-01T20:37:22.777Z,4.30
2018-02-01T20:39:50.299Z,4.30
2018-02-01T20:42:17.950Z,4.30
2018-02-01T20:44:45.452Z,4.30
2018-02-01T20:47:12.974Z,4.40
2018-02-01T20:49:40.633Z,4.30
2018-02-01T20:52:09.128Z,4.30
2018-02-01T20:54:36.618Z,4.30
2018-02-01T20:57:04.129Z,4.30
2018-02-01T20:59:32.507Z,4.20
2018-02-01T21:02:00.743Z,4.20
2018-02-01T21:04:28.335Z,4.20
2018-02-01T21:06:55.876Z,4.20
2018-02-01T21:09:23.386Z,4.20
2018-02-01T21:11:51.059Z,4.10
2018-02-01T21:14:19.299Z,4.10
2018-02-01T21:16:47.582Z,4.00
2018-02-01T21:19:15.846Z,4.10
2018-02-01T21:21:44.094Z,4.10
2018-02-01T21:24:12.252Z,4.10
2018-02-01T21:26:39.781Z,4.10
2018-02-01T21:29:08.021Z,4.00
2018-02-01T21:31:36.301Z,4.00
2018-02-01T21:34:03.805Z,4.00
2018-02-01T21:36:31.363Z,3.90
2018-02-01T21:38:58.993Z,4.00
2018-02-01T21:41:27.269Z,4.00
2018-02-01T21:43:54.841Z,3.80
2018-02-01T21:46:23.266Z,3.80
2018-02-01T21:48:51.585Z,3.80
2018-02-01T21:51:19.065Z,3.80
2018-02-01T21:53:47.337Z,3.80
2018-02-01T21:56:14.872Z,3.80
2018-02-01T21:58:43.137Z,3.90
2018-02-01T22:01:10.701Z,3.90
2018-02-01T22:03:38.233Z,4.00
2018-02-01T22:06:05.719Z,4.00
2018-02-01T22:08:33.259Z,4.00
2018-02-01T22:11:02.123Z,4.10
2018-02-01T22:13:29.631Z,4.10
2018-02-01T22:15:57.229Z,4.00
2018-02-01T22:18:25.467Z,4.00
2018-02-01T22:20:52.969Z,4.00
2018-02-01T22:23:21.211Z,4.00
2018-02-01T22:25:49.528Z,4.00
2018-02-01T22:28:17.018Z,4.00
2018-02-01T22:30:45.354Z,4.00
2018-02-01T22:33:12.899Z,4.00
2018-02-01T22:35:41.261Z,3.90
2018-02-01T22:38:08.747Z,3.90
2018-02-01T22:40:36.240Z,3.90
2018-02-01T22:43:03.830Z,3.90
2018-02-01T22:45:31.414Z,3.80
2018-02-01T22:47:58.987Z,3.90
2018-02-01T22:50:26.600Z,3.90
2018-02-01T22:52:54.903Z,3.90
2018-02-01T22:55:22.403Z,3.90
2018-02-01T22:57:50.729Z,4.00
2018-02-01T23:00:18.241Z,3.90
2018-02-01T23:02:45.714Z,4.00
2018-02-01T23:05:13.176Z,3.90
2018-02-01T23:07:40.667Z,4.00
2018-02-01T23:10:08.155Z,4.00
2018-02-01T23:12:35.634Z,4.00
2018-02-01T23:15:03.894Z,4.00
2018-02-01T23:17:31.426Z,4.00
2018-02-01T23:19:58.917Z,4.10
2018-02-01T23:22:26.385Z,4.10
2018-02-01T23:24:53.874Z,4.10
2018-02-01T23:27:21.373Z,4.10
2018-02-01T23:29:48.893Z,4.10
2018-02-01T23:32:16.381Z,4.10
2018-02-01T23:34:43.842Z,4.10
2018-02-01T23:37:12.024Z,4.00
2018-02-01T23:39:39.487Z,3.90
2018-02-01T23:42:06.973Z,3.90
2018-02-01T23:44:34.439Z,3.90
2018-02-01T23:47:02.953Z,3.80
2018-02-01T23:49:31.202Z,3.80
2018-02-01T23:51:58.710Z,3.80
2018-02-01T23:54:26.205Z,3.80
2018-02-01T23:56:54.452Z,3.80
2018-02-01T23:59:21.992Z,3.70
